Time;durP1;ratioP1;P1;durP2;ratioP2;P2;SDS_P1;SDS_P2;PMS_P1;PMS_P2;Temp;Humidity;BMP_temperature;BMP_pressure;BME280_temperature;BME280_humidity;BME280_pressure;Samples;Min_cycle;Max_cycle;Signal;HPM_P1;HPM_P2
2023/02/12 00:01:36;;;;;;;24.52;13.77;;;;;;;4.22;80.79;99776.78;4970708;28;20153;-74
2023/02/12 00:04:01;;;;;;;28.20;14.48;;;;;;;4.23;80.57;99789.31;4970270;28;20117;-74
2023/02/12 00:06:27;;;;;;;30.17;16.45;;;;;;;4.22;80.97;99787.66;4969374;28;20027;-74
2023/02/12 00:08:54;;;;;;;26.73;14.85;;;;;;;4.24;79.83;99793.69;4970158;28;20019;-73
2023/02/12 00:11:22;;;;;;;27.85;14.02;;;;;;;4.25;80.28;99800.78;4970585;28;20110;-75
2023/02/12 00:13:48;;;;;;;26.55;13.27;;;;;;;4.24;80.06;99791.81;4971104;28;20118;-74
2023/02/12 00:16:16;;;;;;;24.85;13.73;;;;;;;4.27;80.54;99798.69;4971457;28;20181;-73
2023/02/12 00:18:43;;;;;;;25.42;13.52;;;;;;;4.28;80.75;99798.44;4971307;28;20027;-74
2023/02/12 00:21:09;;;;;;;24.85;13.55;;;;;;;4.28;80.01;99784.88;4970291;28;20122;-74
2023/02/12 00:23:36;;;;;;;23.75;14.27;;;;;;;4.28;79.89;99784.88;4967992;28;20475;-72
2023/02/12 00:26:10;;;;;;;23.85;13.18;;;;;;;4.28;80.74;99787.59;4969380;28;20418;-73
2023/02/12 00:28:36;;;;;;;26.25;14.00;;;;;;;4.28;80.37;99797.63;4969236;28;20054;-74
2023/02/12 00:31:28;;;;;;;26.02;14.32;;;;;;;4.27;80.06;99796.78;4970183;28;20022;-74
2023/02/12 00:33:54;;;;;;;24.77;13.15;;;;;;;4.29;80.17;99802.00;4969773;28;20165;-74
2023/02/12 00:36:21;;;;;;;26.90;14.25;;;;;;;4.27;80.09;99801.41;4969335;28;20101;-74
2023/02/12 00:38:50;;;;;;;24.95;14.02;;;;;;;4.24;80.52;99804.56;4968441;28;20030;-74
2023/02/12 00:41:16;;;;;;;24.35;13.73;;;;;;;4.22;79.88;99799.34;4969759;28;20015;-74
2023/02/12 00:43:41;;;;;;;24.73;13.45;;;;;;;4.24;80.86;99794.50;4968450;28;20033;-74
2023/02/12 00:46:07;;;;;;;22.88;13.30;;;;;;;4.23;80.74;99792.84;4969312;28;20475;-74
2023/02/12 00:48:34;;;;;;;25.92;13.82;;;;;;;4.22;80.52;99793.09;4969142;28;20031;-74
2023/02/12 00:51:00;;;;;;;24.98;14.40;;;;;;;4.22;80.32;99795.81;4967978;28;20121;-74
2023/02/12 00:53:26;;;;;;;25.40;14.45;;;;;;;4.22;80.45;99795.81;4974408;28;20531;-74
2023/02/12 00:55:51;;;;;;;25.23;14.05;;;;;;;4.24;80.21;99799.13;4976466;28;20502;-74
2023/02/12 00:58:17;;;;;;;23.75;13.13;;;;;;;4.21;79.73;99800.38;4976027;28;20050;-74
2023/02/12 01:00:43;;;;;;;27.27;15.55;;;;;;;4.24;80.32;99815.44;4976191;28;20162;-74
2023/02/12 01:03:08;;;;;;;26.38;14.23;;;;;;;4.24;80.01;99810.81;4975013;28;20146;-74
2023/02/12 01:05:34;;;;;;;23.75;13.65;;;;;;;4.24;80.68;99810.00;4975408;28;20542;-74
2023/02/12 01:08:00;;;;;;;25.15;13.90;;;;;;;4.23;80.45;99809.16;4975740;28;20023;-75
2023/02/12 01:10:26;;;;;;;25.65;13.93;;;;;;;4.24;80.25;99805.38;4975847;28;20489;-74
2023/02/12 01:12:51;;;;;;;27.58;15.27;;;;;;;4.22;80.29;99807.47;4973875;28;20023;-75
2023/02/12 01:15:17;;;;;;;24.25;14.15;;;;;;;4.24;79.98;99807.28;4975161;28;20026;-74
2023/02/12 01:17:43;;;;;;;22.70;12.82;;;;;;;4.24;80.27;99812.72;4973977;28;20045;-74
2023/02/12 01:20:12;;;;;;;23.08;13.60;;;;;;;4.23;80.69;99816.47;4975235;28;20027;-75
2023/02/12 01:22:38;;;;;;;20.15;11.93;;;;;;;4.23;80.78;99813.75;4974002;28;20031;-74
2023/02/12 01:25:05;;;;;;;21.65;13.18;;;;;;;4.22;80.80;99820.25;4974693;28;20046;-74
2023/02/12 01:27:31;;;;;;;22.25;12.20;;;;;;;4.20;80.63;99819.63;4973667;28;20034;-75
2023/02/12 01:29:56;;;;;;;22.10;12.98;;;;;;;4.16;80.27;99825.50;4974818;28;20089;-74
2023/02/12 01:32:22;;;;;;;19.02;11.23;;;;;;;4.17;80.96;99827.16;4975374;28;20035;-74
2023/02/12 01:34:47;;;;;;;21.95;12.27;;;;;;;4.20;81.03;99827.78;4975276;28;20015;-74
2023/02/12 01:37:14;;;;;;;20.85;12.43;;;;;;;4.19;80.91;99829.66;4974891;28;20055;-74
2023/02/12 01:39:39;;;;;;;19.73;11.90;;;;;;;4.21;81.13;99824.81;4974771;28;20027;-74
2023/02/12 01:42:05;;;;;;;20.30;11.52;;;;;;;4.20;81.38;99830.50;4973315;28;20387;-74
2023/02/12 01:44:34;;;;;;;21.15;12.35;;;;;;;4.18;81.39;99833.41;4974548;28;20046;-74
2023/02/12 01:47:02;;;;;;;27.03;12.93;;;;;;;4.16;81.08;99833.66;4975209;28;20061;-74
2023/02/12 01:49:33;;;;;;;20.83;11.38;;;;;;;4.16;81.63;99840.94;4974804;28;20329;-74
2023/02/12 01:52:05;;;;;;;22.10;12.25;;;;;;;4.17;81.54;99829.88;4974359;28;20081;-74
2023/02/12 01:54:32;;;;;;;23.88;12.40;;;;;;;4.18;80.95;99838.84;4974929;28;20041;-74
2023/02/12 01:56:59;;;;;;;27.65;14.70;;;;;;;4.17;80.78;99845.31;4972892;28;20022;-74
2023/02/12 01:59:25;;;;;;;24.85;12.77;;;;;;;4.19;81.08;99837.78;4975099;28;20034;-75
2023/02/12 02:01:51;;;;;;;20.00;11.88;;;;;;;4.22;81.12;99844.69;4974868;28;20029;-74
2023/02/12 02:04:22;;;;;;;19.13;11.52;;;;;;;4.24;81.06;99856.97;4971774;28;20468;-74
2023/02/12 02:06:55;;;;;;;20.15;11.50;;;;;;;4.25;81.36;99842.34;4972370;28;20046;-75
2023/02/12 02:09:21;;;;;;;18.48;10.70;;;;;;;4.25;81.46;99852.41;4972018;28;20038;-74
2023/02/12 02:14:42;;;;;;;21.92;11.50;;;;;;;4.23;81.02;99849.88;4963216;28;20035;-75
2023/02/12 02:17:31;;;;;;;19.42;11.32;;;;;;;4.23;81.02;99858.03;4970812;28;20082;-75
2023/02/12 02:20:11;;;;;;;20.67;12.05;;;;;;;4.25;81.80;99863.25;4971207;28;20027;-74
2023/02/12 02:23:15;;;;;;;20.40;11.25;;;;;;;4.22;81.85;99860.97;4971053;28;20122;-74
2023/02/12 02:26:34;;;;;;;21.35;12.27;;;;;;;4.22;81.78;99867.22;4969760;28;20517;-75
2023/02/12 02:29:21;;;;;;;20.27;10.65;;;;;;;4.23;81.01;99868.91;4970459;28;20054;-75
2023/02/12 02:31:57;;;;;;;18.42;10.30;;;;;;;4.25;81.17;99874.94;4971316;28;20058;-74
2023/02/12 02:34:33;;;;;;;17.90;10.80;;;;;;;4.26;81.73;99873.88;4970370;28;20018;-74
2023/02/12 02:37:18;;;;;;;15.98;9.50;;;;;;;4.28;81.18;99870.97;4970339;28;20031;-74
2023/02/12 02:40:04;;;;;;;19.27;10.27;;;;;;;4.30;81.04;99874.25;4972110;28;20381;-74
2023/02/12 02:42:48;;;;;;;18.00;10.93;;;;;;;4.32;81.63;99881.16;4971010;28;20031;-74
2023/02/12 02:45:32;;;;;;;19.05;10.98;;;;;;;4.32;81.00;99875.72;4970610;28;20047;-74
2023/02/12 02:48:03;;;;;;;21.83;11.60;;;;;;;4.30;81.29;99876.97;4970314;28;20550;-72
2023/02/12 02:50:34;;;;;;;17.48;9.98;;;;;;;4.34;81.70;99885.53;4971420;28;20407;-74
2023/02/12 02:53:25;;;;;;;18.92;11.75;;;;;;;4.35;81.09;99890.75;4970959;28;20027;-74
2023/02/12 02:55:55;;;;;;;24.10;12.60;;;;;;;4.37;80.98;99904.94;4970803;28;20030;-73
2023/02/12 02:58:25;;;;;;;19.88;12.02;;;;;;;4.37;81.31;99896.78;4971248;28;20037;-74
2023/02/12 03:01:02;;;;;;;20.65;11.10;;;;;;;4.40;81.93;99899.06;4971267;28;20098;-73
2023/02/12 03:03:44;;;;;;;20.15;11.13;;;;;;;4.40;81.12;99896.34;4970796;28;20570;-74
2023/02/12 03:06:14;;;;;;;20.55;11.23;;;;;;;4.41;81.66;99903.44;4969610;28;20535;-74
2023/02/12 03:08:52;;;;;;;21.42;11.73;;;;;;;4.42;80.87;99912.44;4970695;28;20090;-74
2023/02/12 03:11:30;;;;;;;22.52;12.27;;;;;;;4.44;81.19;99921.22;4971013;28;20026;-74
2023/02/12 03:14:06;;;;;;;22.65;12.63;;;;;;;4.42;81.07;99921.41;4970043;28;20164;-74
2023/02/12 03:16:59;;;;;;;24.52;13.85;;;;;;;4.40;81.44;99912.66;4969192;28;20018;-74
2023/02/12 03:19:32;;;;;;;22.70;13.02;;;;;;;4.39;81.50;99924.56;4970719;28;20581;-74
2023/02/12 03:22:09;;;;;;;22.85;13.00;;;;;;;4.40;81.27;99928.94;4970609;28;20022;-74
2023/02/12 03:24:40;;;;;;;23.05;12.50;;;;;;;4.41;81.30;99938.75;4970650;28;20031;-74
2023/02/12 03:27:30;;;;;;;22.17;12.50;;;;;;;4.43;80.66;99935.84;4970771;28;20030;-74
2023/02/12 03:29:57;;;;;;;24.15;12.40;;;;;;;4.47;80.83;99953.38;4970431;28;20035;-75
2023/02/12 03:32:44;;;;;;;22.75;12.48;;;;;;;4.47;80.96;99956.91;4970521;28;20243;-74
2023/02/12 03:35:37;;;;;;;24.77;12.85;;;;;;;4.49;81.47;99964.00;4970251;28;20035;-75
2023/02/12 03:38:10;;;;;;;21.70;12.35;;;;;;;4.53;81.43;99970.69;4969130;28;20039;-74
2023/02/12 03:40:51;;;;;;;24.50;13.50;;;;;;;4.52;81.07;99969.00;4969222;28;20029;-75
2023/02/12 03:43:20;;;;;;;23.40;11.70;;;;;;;4.55;81.13;99974.81;4970129;28;20035;-76
2023/02/12 03:45:51;;;;;;;25.42;13.27;;;;;;;4.55;80.66;99980.25;4970399;28;20023;-75
2023/02/12 03:48:34;;;;;;;24.60;13.35;;;;;;;4.56;80.56;99992.78;4970683;28;20015;-75
2023/02/12 03:51:08;;;;;;;24.67;12.82;;;;;;;4.55;80.87;100004.72;4971962;28;20073;-74
2023/02/12 03:53:33;;;;;;;25.00;13.77;;;;;;;4.57;81.25;99999.06;4968335;28;20038;-74
2023/02/12 03:56:05;;;;;;;25.13;13.07;;;;;;;4.54;81.24;99994.06;4969977;28;20431;-75
2023/02/12 03:58:34;;;;;;;23.55;12.32;;;;;;;4.52;81.16;99999.72;4970583;28;20026;-75
2023/02/12 04:01:00;;;;;;;26.27;13.47;;;;;;;4.47;80.93;100007.72;4967241;28;20027;-74
2023/02/12 04:03:26;;;;;;;27.52;13.68;;;;;;;4.46;80.68;100006.88;4969505;28;20062;-75
2023/02/12 04:05:52;;;;;;;22.98;13.07;;;;;;;4.46;80.74;100015.00;4969678;28;20045;-75
2023/02/12 04:08:17;;;;;;;23.95;12.60;;;;;;;4.43;80.34;100015.44;4970662;28;20058;-74
2023/02/12 04:10:52;;;;;;;24.80;13.38;;;;;;;4.44;80.76;100016.28;4969644;28;20034;-75
2023/02/12 04:13:25;;;;;;;23.88;12.88;;;;;;;4.43;80.39;100018.16;4969657;28;20109;-74
2023/02/12 04:16:33;;;;;;;25.38;13.55;;;;;;;4.41;80.68;100019.44;4968076;28;20026;-74
2023/02/12 04:18:59;;;;;;;25.38;13.77;;;;;;;4.43;81.00;100026.31;4966853;28;20092;-74
2023/02/12 04:21:47;;;;;;;23.98;12.70;;;;;;;4.44;80.33;100029.88;4968510;28;20503;-74
2023/02/12 04:24:31;;;;;;;24.98;13.25;;;;;;;4.43;80.37;100029.03;4969145;28;20038;-75
2023/02/12 04:27:07;;;;;;;22.05;13.20;;;;;;;4.44;80.59;100035.31;4969099;28;20112;-75
2023/02/12 04:29:58;;;;;;;24.73;12.65;;;;;;;4.44;80.92;100033.41;4969806;28;20062;-74
2023/02/12 04:32:32;;;;;;;24.83;12.85;;;;;;;4.45;80.48;100039.69;4968554;28;20443;-75
2023/02/12 04:35:26;;;;;;;26.30;13.85;;;;;;;4.42;80.03;100034.69;4969650;28;20025;-75
2023/02/12 04:38:21;;;;;;;27.65;14.73;;;;;;;4.42;80.06;100037.41;4969730;28;20034;-74
2023/02/12 04:40:47;;;;;;;26.05;13.45;;;;;;;4.44;80.04;100044.28;4967732;28;20038;-74
2023/02/12 04:43:13;;;;;;;24.75;13.45;;;;;;;4.46;80.52;100053.06;4969227;28;20019;-74
2023/02/12 04:45:38;;;;;;;27.45;13.35;;;;;;;4.45;80.25;100047.84;4969687;28;20032;-74
2023/02/12 04:48:04;;;;;;;24.60;13.70;;;;;;;4.44;80.31;100052.44;4969766;28;20026;-74
2023/02/12 04:50:42;;;;;;;25.52;13.70;;;;;;;4.43;80.48;100058.91;4969652;28;20063;-74
2023/02/12 04:53:08;;;;;;;25.00;13.90;;;;;;;4.46;80.70;100058.47;4969524;28;20487;-74
2023/02/12 04:55:34;;;;;;;27.92;14.48;;;;;;;4.44;80.20;100062.47;4969203;28;20034;-74
2023/02/12 04:57:59;;;;;;;28.35;14.13;;;;;;;4.46;80.18;100066.63;4969556;28;20011;-74
2023/02/12 05:00:24;;;;;;;26.83;14.60;;;;;;;4.48;80.05;100069.16;4952600;28;20033;-75
2023/02/12 05:02:50;;;;;;;28.40;14.85;;;;;;;4.51;80.04;100074.13;4967824;28;20468;-75
2023/02/12 05:05:15;;;;;;;26.08;14.32;;;;;;;4.50;80.53;100074.34;4969237;28;20472;-74
2023/02/12 05:07:41;;;;;;;25.00;13.07;;;;;;;4.50;80.42;100077.91;4969812;28;20081;-74
2023/02/12 05:10:07;;;;;;;23.73;12.73;;;;;;;4.47;80.25;100086.50;4969266;28;20039;-74
2023/02/12 05:12:32;;;;;;;31.20;14.70;;;;;;;4.46;80.05;100088.38;4968959;28;20035;-74
2023/02/12 05:14:58;;;;;;;22.85;13.07;;;;;;;4.44;79.88;100095.91;4967302;28;20037;-74
2023/02/12 05:17:23;;;;;;;26.70;13.88;;;;;;;4.43;79.86;100091.50;4969071;28;20041;-74
2023/02/12 05:19:50;;;;;;;26.73;14.15;;;;;;;4.43;80.13;100096.13;4969451;28;20018;-75
2023/02/12 05:22:15;;;;;;;28.63;14.80;;;;;;;4.41;80.43;100095.50;4969215;28;20029;-74
2023/02/12 05:24:41;;;;;;;28.45;14.77;;;;;;;4.42;79.82;100097.19;4968720;28;20110;-74
2023/02/12 05:27:07;;;;;;;28.77;14.05;;;;;;;4.41;79.75;100101.75;4969388;28;20015;-74
2023/02/12 05:29:33;;;;;;;27.15;15.23;;;;;;;4.41;79.64;100101.75;4967362;28;20027;-74
2023/02/12 05:31:59;;;;;;;27.52;15.10;;;;;;;4.43;79.95;100102.38;4969004;28;20415;-74
2023/02/12 05:34:24;;;;;;;26.52;15.13;;;;;;;4.44;79.42;100114.91;4970677;28;20019;-75
2023/02/12 05:36:50;;;;;;;24.77;13.65;;;;;;;4.43;79.60;100110.53;4971803;28;20030;-74
2023/02/12 05:39:15;;;;;;;27.30;15.13;;;;;;;4.44;80.04;100124.97;4970312;28;20112;-75
2023/02/12 05:41:40;;;;;;;24.88;13.85;;;;;;;4.44;80.02;100123.06;4971886;28;20030;-74
2023/02/12 05:44:06;;;;;;;21.88;13.43;;;;;;;4.44;79.91;100130.41;4972397;28;20027;-74
2023/02/12 05:46:32;;;;;;;24.75;13.23;;;;;;;4.45;79.73;100140.22;4972973;28;20031;-75
2023/02/12 05:48:57;;;;;;;24.27;14.45;;;;;;;4.43;79.58;100129.56;4972992;28;20022;-75
2023/02/12 05:51:25;;;;;;;27.25;13.85;;;;;;;4.43;79.42;100143.13;4972396;28;20507;-74
2023/02/12 05:53:56;;;;;;;25.70;13.15;;;;;;;4.43;79.78;100147.75;4971937;28;20059;-74
2023/02/12 05:56:24;;;;;;;22.70;13.20;;;;;;;4.43;80.12;100142.31;4972146;28;20122;-75
2023/02/12 05:59:05;;;;;;;23.08;13.00;;;;;;;4.41;79.82;100147.94;4971991;28;20038;-74
2023/02/12 06:01:37;;;;;;;26.10;14.20;;;;;;;4.41;79.65;100147.94;4972476;28;20031;-75
2023/02/12 06:04:06;;;;;;;24.65;13.50;;;;;;;4.40;79.82;100154.44;4969461;28;20493;-74
2023/02/12 06:06:32;;;;;;;21.27;12.70;;;;;;;4.41;79.26;100152.56;4968976;28;20026;-74
2023/02/12 06:08:59;;;;;;;23.20;13.27;;;;;;;4.39;79.79;100166.34;4972533;28;20424;-74
2023/02/12 06:11:24;;;;;;;25.55;13.35;;;;;;;4.37;79.46;100167.63;4971850;28;20487;-74
2023/02/12 06:13:50;;;;;;;25.20;13.95;;;;;;;4.35;79.85;100173.25;4971025;28;20019;-74
2023/02/12 06:16:24;;;;;;;25.92;14.57;;;;;;;4.34;79.07;100179.72;4971401;28;20018;-74
2023/02/12 06:18:50;;;;;;;24.60;13.15;;;;;;;4.34;79.66;100187.88;4972116;28;20489;-74
2023/02/12 06:21:17;;;;;;;22.85;13.18;;;;;;;4.32;78.95;100193.53;4972323;28;20019;-74
2023/02/12 06:23:42;;;;;;;23.77;13.23;;;;;;;4.32;79.26;100190.81;4971697;28;20035;-74
2023/02/12 06:26:08;;;;;;;26.00;13.85;;;;;;;4.31;79.12;100199.16;4971116;28;20035;-74
2023/02/12 06:28:33;;;;;;;24.45;14.02;;;;;;;4.33;79.17;100202.50;4970037;28;20035;-74
2023/02/12 06:30:59;;;;;;;28.20;13.98;;;;;;;4.29;79.01;100195.81;4971941;28;20045;-74
2023/02/12 06:33:24;;;;;;;23.00;13.50;;;;;;;4.30;79.44;100216.50;4971438;28;20030;-74
2023/02/12 06:35:50;;;;;;;27.20;14.52;;;;;;;4.30;79.16;100208.34;4971475;28;20023;-74
2023/02/12 06:38:15;;;;;;;26.80;14.48;;;;;;;4.32;78.73;100212.53;4970264;28;20395;-74
2023/02/12 06:40:41;;;;;;;27.88;14.02;;;;;;;4.31;79.01;100224.47;4972041;28;20027;-74
2023/02/12 06:43:06;;;;;;;27.30;13.98;;;;;;;4.34;79.42;100225.09;4971126;28;20038;-75
2023/02/12 06:45:32;;;;;;;27.25;13.43;;;;;;;4.35;79.22;100218.59;4971421;28;20093;-75
2023/02/12 06:47:58;;;;;;;30.17;17.17;;;;;;;4.35;78.87;100224.84;4971636;28;20244;-74
2023/02/12 06:50:23;;;;;;;36.47;20.30;;;;;;;4.35;79.17;100224.84;4971024;28;20769;-75
2023/02/12 06:52:49;;;;;;;38.88;21.30;;;;;;;4.37;79.00;100221.94;4971705;28;20034;-74
2023/02/12 06:55:15;;;;;;;31.98;18.02;;;;;;;4.37;78.99;100228.19;4971356;28;20559;-74
2023/02/12 06:57:41;;;;;;;33.00;18.35;;;;;;;4.38;79.63;100237.19;4971321;28;20034;-74
2023/02/12 07:00:07;;;;;;;30.40;18.27;;;;;;;4.36;78.90;100231.16;4971131;28;20030;-74
2023/02/12 07:02:32;;;;;;;30.42;17.35;;;;;;;4.35;79.01;100234.91;4971073;28;20491;-74
2023/02/12 07:04:57;;;;;;;31.60;16.90;;;;;;;4.37;79.43;100238.25;4971185;28;20026;-75
2023/02/12 07:07:23;;;;;;;29.33;17.75;;;;;;;4.38;78.97;100240.75;4970862;28;20599;-74
2023/02/12 07:09:48;;;;;;;31.38;17.27;;;;;;;4.38;78.68;100239.91;4969896;28;20034;-74
2023/02/12 07:12:13;;;;;;;32.45;16.60;;;;;;;4.37;78.88;100249.94;4969775;28;20487;-74
2023/02/12 07:14:39;;;;;;;31.13;17.75;;;;;;;4.38;79.24;100235.31;4970697;28;20026;-74
2023/02/12 07:17:06;;;;;;;30.58;18.67;;;;;;;4.41;78.99;100242.22;4970485;28;20034;-74
2023/02/12 07:19:32;;;;;;;35.97;18.77;;;;;;;4.41;79.13;100245.75;4971181;28;20030;-74
2023/02/12 07:21:57;;;;;;;31.40;18.80;;;;;;;4.45;79.53;100254.34;4971060;28;20034;-74
2023/02/12 07:24:22;;;;;;;34.15;18.75;;;;;;;4.49;79.04;100260.16;4970661;28;20041;-73
2023/02/12 07:26:48;;;;;;;34.78;18.55;;;;;;;4.52;79.51;100273.34;4970636;28;20463;-74
2023/02/12 07:29:13;;;;;;;29.70;18.17;;;;;;;4.53;79.10;100259.53;4970415;28;20062;-74
2023/02/12 07:31:40;;;;;;;30.15;19.02;;;;;;;4.52;79.21;100265.19;4969716;28;20387;-74
2023/02/12 07:34:05;;;;;;;32.25;18.92;;;;;;;4.52;79.11;100282.31;4970043;28;20114;-73
2023/02/12 07:36:32;;;;;;;36.30;18.83;;;;;;;4.55;78.86;100278.34;4970710;28;20102;-74
2023/02/12 07:38:58;;;;;;;32.80;20.02;;;;;;;4.56;79.04;100283.56;4970120;28;20531;-75
2023/02/12 07:41:28;;;;;;;32.95;18.65;;;;;;;4.58;78.84;100286.06;4971125;28;20407;-74
2023/02/12 07:43:56;;;;;;;30.25;17.20;;;;;;;4.55;79.09;100284.59;4966156;28;20685;-74
2023/02/12 07:46:30;;;;;;;30.85;18.13;;;;;;;4.57;79.38;100287.94;4969143;28;20033;-75
2023/02/12 07:49:01;;;;;;;29.00;16.00;;;;;;;4.56;79.40;100293.59;4968776;28;20031;-75
2023/02/12 07:51:27;;;;;;;29.35;15.85;;;;;;;4.52;78.59;100295.06;4968750;28;20069;-75
2023/02/12 07:53:53;;;;;;;25.92;15.50;;;;;;;4.46;78.57;100291.31;4967583;28;20039;-74
2023/02/12 07:56:21;;;;;;;22.77;12.68;;;;;;;4.44;78.97;100302.38;4968221;28;20073;-74
2023/02/12 07:58:49;;;;;;;23.73;12.38;;;;;;;4.44;78.91;100299.66;4968889;28;20097;-74
2023/02/12 08:01:16;;;;;;;23.23;12.77;;;;;;;4.45;79.10;100306.78;4967485;28;20022;-74
2023/02/12 08:03:43;;;;;;;21.35;11.25;;;;;;;4.48;78.40;100305.53;4968147;28;20027;-75
2023/02/12 08:06:10;;;;;;;20.65;11.00;;;;;;;4.47;78.38;100307.41;4967753;28;20046;-75
2023/02/12 08:08:37;;;;;;;26.38;12.98;;;;;;;4.48;78.80;100308.25;4969201;28;20073;-75
2023/02/12 08:11:04;;;;;;;23.58;13.40;;;;;;;4.52;78.29;100308.66;4968972;28;20558;-75
2023/02/12 08:13:31;;;;;;;23.58;12.57;;;;;;;4.53;78.49;100310.31;4968268;28;20023;-75
2023/02/12 08:16:05;;;;;;;23.55;12.93;;;;;;;4.56;78.55;100312.63;4968455;28;20027;-75
2023/02/12 08:18:31;;;;;;;20.55;10.68;;;;;;;4.59;78.50;100317.63;4969022;28;20077;-75
2023/02/12 08:21:02;;;;;;;20.20;12.40;;;;;;;4.62;78.43;100322.66;4968935;28;20093;-75
2023/02/12 08:23:28;;;;;;;23.10;12.25;;;;;;;4.64;78.62;100323.28;4968380;28;20034;-75
2023/02/12 08:25:54;;;;;;;25.83;13.45;;;;;;;4.68;78.13;100332.69;4967733;28;20041;-75
2023/02/12 08:28:19;;;;;;;25.23;12.68;;;;;;;4.73;78.16;100337.47;4968793;28;20039;-77
2023/02/12 08:30:44;;;;;;;24.05;14.05;;;;;;;4.73;78.01;100340.19;4967375;28;20464;-76
2023/02/12 08:33:10;;;;;;;28.23;13.18;;;;;;;4.74;78.26;100331.00;4969390;28;20375;-74
2023/02/12 08:35:35;;;;;;;25.58;12.80;;;;;;;4.79;78.60;100330.34;4969793;28;20546;-75
2023/02/12 08:38:00;;;;;;;25.60;11.82;;;;;;;4.79;78.00;100333.06;4969414;28;20443;-74
2023/02/12 08:40:26;;;;;;;20.83;10.30;;;;;;;4.77;78.28;100341.44;4969373;28;20127;-75
2023/02/12 08:42:51;;;;;;;19.48;9.90;;;;;;;4.75;77.96;100347.09;4969775;28;20031;-74
2023/02/12 08:45:17;;;;;;;14.38;8.93;;;;;;;4.75;78.03;100347.09;4966478;28;20149;-74
2023/02/12 08:47:42;;;;;;;15.45;9.02;;;;;;;4.73;77.41;100343.75;4970018;28;20034;-74
2023/02/12 08:50:08;;;;;;;17.48;9.48;;;;;;;4.71;77.47;100345.00;4965407;28;20437;-75
2023/02/12 08:52:34;;;;;;;18.48;10.70;;;;;;;4.69;77.19;100350.63;4969355;28;20057;-74
2023/02/12 08:55:00;;;;;;;27.85;14.05;;;;;;;4.71;78.11;100351.25;4969183;28;20026;-74
2023/02/12 08:57:25;;;;;;;23.55;12.90;;;;;;;4.75;77.66;100357.97;4968092;28;20019;-74
2023/02/12 08:59:50;;;;;;;21.95;12.38;;;;;;;4.77;77.45;100361.31;4967140;28;20053;-78
2023/02/12 09:02:16;;;;;;;18.48;11.07;;;;;;;4.80;77.29;100367.38;4967899;28;20554;-76
2023/02/12 09:04:41;;;;;;;17.30;10.43;;;;;;;4.83;77.48;100366.94;4965299;28;20070;-76
2023/02/12 09:07:07;;;;;;;25.13;12.88;;;;;;;4.84;77.78;100371.34;4968480;28;20047;-76
2023/02/12 09:09:32;;;;;;;25.77;16.42;;;;;;;4.86;77.06;100371.97;4966827;28;20062;-75
2023/02/12 09:11:57;;;;;;;23.20;13.60;;;;;;;4.89;77.74;100380.53;4968266;28;20110;-75
2023/02/12 09:14:23;;;;;;;23.27;12.38;;;;;;;4.93;77.50;100375.50;4969554;28;20062;-76
2023/02/12 09:16:51;;;;;;;22.80;12.32;;;;;;;4.92;76.99;100382.00;4971913;28;20468;-75
2023/02/12 09:19:16;;;;;;;21.10;12.13;;;;;;;4.91;77.03;100381.16;4972052;28;20022;-75
2023/02/12 09:21:42;;;;;;;20.80;12.45;;;;;;;4.93;77.34;100386.38;4973097;28;20065;-75
2023/02/12 09:24:07;;;;;;;23.15;12.73;;;;;;;4.92;77.10;100392.88;4971399;28;20058;-76
2023/02/12 09:26:33;;;;;;;20.40;12.70;;;;;;;4.91;76.85;100388.47;4973820;28;20504;-75
2023/02/12 09:29:01;;;;;;;24.17;13.43;;;;;;;4.94;77.01;100392.66;4973837;28;20034;-75
2023/02/12 09:31:28;;;;;;;35.88;16.73;;;;;;;4.94;76.66;100404.38;4970712;28;20448;-76
2023/02/12 09:33:57;;;;;;;23.23;11.43;;;;;;;4.92;76.33;100401.84;4973465;28;20034;-76
2023/02/12 09:36:23;;;;;;;38.90;17.97;;;;;;;4.92;76.70;100410.00;4973741;28;20452;-75
2023/02/12 09:38:48;;;;;;;33.95;16.02;;;;;;;4.92;76.43;100412.72;4973771;28;20187;-74
2023/02/12 09:41:26;;;;;;;22.30;11.65;;;;;;;4.91;76.22;100415.66;4973049;28;20031;-74
2023/02/12 09:44:00;;;;;;;21.75;13.60;;;;;;;4.93;76.42;100413.56;4972234;28;20039;-76
2023/02/12 09:46:57;;;;;;;24.48;14.02;;;;;;;4.94;76.07;100412.53;4973582;28;20097;-76
2023/02/12 09:49:41;;;;;;;23.13;12.60;;;;;;;4.98;76.09;100418.38;4973559;28;20034;-76
2023/02/12 09:52:16;;;;;;;19.77;10.40;;;;;;;4.99;76.28;100414.59;4972867;28;20042;-77
2023/02/12 09:54:43;;;;;;;21.92;11.18;;;;;;;5.09;76.31;100416.91;4971973;28;20476;-77
2023/02/12 09:57:35;;;;;;;22.55;10.95;;;;;;;5.13;76.36;100419.00;4973145;28;20105;-77
2023/02/12 10:00:10;;;;;;;19.60;11.05;;;;;;;5.18;76.09;100421.06;4971954;28;20022;-77
2023/02/12 10:02:38;;;;;;;18.80;11.40;;;;;;;5.24;76.05;100419.41;4972633;28;20023;-74
2023/02/12 10:05:05;;;;;;;16.17;8.48;;;;;;;5.28;75.62;100421.47;4973342;28;20065;-75
2023/02/12 10:07:43;;;;;;;12.70;6.57;;;;;;;5.31;75.70;100426.50;4972429;28;20035;-76
2023/02/12 10:10:08;;;;;;;13.60;7.85;;;;;;;5.33;75.87;100431.69;4970899;28;20031;-75
2023/02/12 10:12:57;;;;;;;14.00;9.10;;;;;;;5.34;75.71;100431.50;4969185;28;20102;-77
2023/02/12 10:15:29;;;;;;;12.82;6.93;;;;;;;5.37;75.51;100427.50;4969158;28;20102;-78
2023/02/12 10:18:08;;;;;;;12.38;7.75;;;;;;;5.37;75.22;100435.66;4972599;28;20030;-76
2023/02/12 10:20:53;;;;;;;16.27;7.78;;;;;;;5.36;75.25;100440.28;4969315;28;20468;-75
2023/02/12 10:23:31;;;;;;;11.77;6.93;;;;;;;5.32;74.91;100438.19;4967925;28;20502;-75
2023/02/12 10:26:16;;;;;;;13.75;8.40;;;;;;;5.30;74.79;100446.59;4967856;28;20117;-75
2023/02/12 10:28:43;;;;;;;19.60;13.18;;;;;;;5.27;74.70;100457.06;4987402;28;20392;-77
2023/02/12 10:31:13;;;;;;;15.30;7.75;;;;;;;5.19;74.13;100449.94;4971226;28;20019;-76
2023/02/12 10:33:53;;;;;;;11.30;7.18;;;;;;;5.14;74.20;100455.16;4970267;28;20236;-77
2023/02/12 10:36:44;;;;;;;17.42;9.82;;;;;;;5.14;74.26;100447.88;4971670;28;20027;-77
2023/02/12 10:39:11;;;;;;;14.70;9.50;;;;;;;5.18;74.63;100449.13;4972099;28;20704;-78
2023/02/12 10:41:43;;;;;;;14.18;8.45;;;;;;;5.22;74.41;100453.09;4972078;28;20035;-77
2023/02/12 10:44:12;;;;;;;17.77;11.13;;;;;;;5.25;74.38;100456.44;4969669;28;20121;-77
2023/02/12 10:46:37;;;;;;;15.52;9.68;;;;;;;5.30;74.45;100457.47;4970047;28;20038;-76
2023/02/12 10:49:05;;;;;;;16.42;9.10;;;;;;;5.33;74.51;100458.91;4972382;28;20375;-79
2023/02/12 10:51:49;;;;;;;19.65;9.57;;;;;;;5.33;74.72;100451.59;4970764;28;20453;-79
2023/02/12 10:54:30;;;;;;;12.95;6.70;;;;;;;5.35;74.19;100446.78;4971813;28;20039;-80
2023/02/12 10:56:57;;;;;;;66.78;21.40;;;;;;;5.41;73.91;100446.97;4970660;28;20109;-80
2023/02/12 10:59:23;;;;;;;29.98;11.38;;;;;;;5.47;74.10;100449.69;4968757;28;20564;-79
2023/02/12 11:01:48;;;;;;;29.15;10.98;;;;;;;5.51;74.26;100440.03;4970695;28;20102;-80
2023/02/12 11:04:28;;;;;;;91.00;26.45;;;;;;;5.53;73.83;100444.44;4972391;28;20073;-80
2023/02/12 11:06:59;;;;;;;223.88;52.75;;;;;;;5.53;73.88;100441.72;4968670;28;20027;-78
2023/02/12 11:09:45;;;;;;;45.05;13.70;;;;;;;5.54;73.77;100446.94;4971481;28;20039;-78
2023/02/12 11:12:31;;;;;;;22.05;8.50;;;;;;;5.53;73.94;100445.25;4971006;28;20030;-80
2023/02/12 11:15:18;;;;;;;21.45;9.00;;;;;;;5.54;73.46;100449.66;4971398;28;20027;-79
2023/02/12 11:18:03;;;;;;;21.30;9.15;;;;;;;5.52;73.32;100449.03;4971239;28;20046;-80
2023/02/12 11:20:37;;;;;;;29.05;11.70;;;;;;;5.55;73.30;100440.44;4968291;28;20037;-79
2023/02/12 11:23:06;;;;;;;227.82;70.45;;;;;;;5.60;73.56;100435.19;4966765;28;20077;-80
2023/02/12 11:25:34;;;;;;;173.10;51.97;;;;;;;5.66;73.55;100439.78;4969640;28;20069;-80
2023/02/12 11:28:15;;;;;;;51.92;21.15;;;;;;;5.69;73.13;100435.81;4969774;28;20023;-79
2023/02/12 11:30:55;;;;;;;28.13;11.45;;;;;;;5.73;73.46;100438.94;4969916;28;20039;-80
2023/02/12 11:33:30;;;;;;;27.23;11.80;;;;;;;5.73;72.94;100438.94;4969366;28;20027;-79
2023/02/12 11:35:59;;;;;;;18.05;8.32;;;;;;;5.75;73.15;100439.53;4969476;28;20030;-79
2023/02/12 11:38:31;;;;;;;36.42;12.80;;;;;;;5.78;72.74;100430.94;4967732;28;20509;-80